MMHO/HMO METAR and TAF weather

Enter ICAO airport designator
Station Type Date Time Source
MMHO METAR 2021/03/05 13:40 UTC NOAA

MMHO 051340Z 00000KT 10SM SKC 11/05 A3004 RMK ISOL AC HZY


Station Type Date Time Source
MMHO Decoded METAR 2021/03/05 13:40 UTC NOAA

Hermosillo, Son., Mexico (MMHO) 29-04N 110-57W
Mar 05, 2021 - 08:40 AM EST / 2021.03.05 1340 UTC
Wind: Calm:0
Visibility: 10 mile(s):0
Sky conditions: clear
Temperature: 51 F (11 C)
Dew Point: 41 F (5 C)
Relative Humidity: 66%
Pressure (altimeter): 30.04 in. Hg (1017 hPa)
ob: MMHO 051340Z 00000KT 10SM SKC 11/05 A3004 RMK ISOL AC HZY
cycle: 13

Station Type Date Time Source
MMHO TAF 2021/03/05 06:11 UTC NOAA

TAF MMHO 050303Z 0506/0606 26005KT P6SM SCT250
FM051800 05010KT P6SM SCT090 BKN250
FM060500 05005KT P6SM SCT250

Example: see airport list